Time;durP1;ratioP1;P1;durP2;ratioP2;P2;SDS_P1;SDS_P2;PMS_P1;PMS_P2;Temp;Humidity;BMP_temperature;BMP_pressure;BME280_temperature;BME280_humidity;BME280_pressure;Samples;Min_cycle;Max_cycle;Signal;HPM_P1;HPM_P2
2023/08/28 00:02:10;;;;;;;6.68;4.75;;;12.10;99.90;;;;;;5145115;27;20452;-71
2023/08/28 00:04:36;;;;;;;6.10;4.90;;;12.10;99.90;;;;;;5141568;27;20131;-71
2023/08/28 00:07:02;;;;;;;6.63;4.70;;;12.10;99.90;;;;;;5133858;27;20061;-71
2023/08/28 00:09:27;;;;;;;6.38;4.80;;;12.10;99.90;;;;;;5134058;27;20038;-71
2023/08/28 00:11:57;;;;;;;6.97;5.03;;;12.10;99.90;;;;;;5147945;27;20050;-71
2023/08/28 00:14:26;;;;;;;6.30;4.93;;;12.10;99.90;;;;;;5136148;27;20551;-71
2023/08/28 00:16:52;;;;;;;7.78;5.05;;;12.20;99.90;;;;;;5129652;27;20118;-70
2023/08/28 00:19:18;;;;;;;8.05;4.72;;;12.20;99.90;;;;;;5145591;27;20521;-71
2023/08/28 00:21:44;;;;;;;7.40;4.88;;;12.20;99.90;;;;;;5134082;27;20043;-71
2023/08/28 00:24:10;;;;;;;6.25;4.10;;;12.20;99.90;;;;;;5148782;27;20066;-72
2023/08/28 00:26:35;;;;;;;7.95;4.78;;;12.30;99.90;;;;;;5137152;27;20468;-72
2023/08/28 00:29:01;;;;;;;5.85;3.95;;;12.30;99.90;;;;;;5152817;27;20428;-72
2023/08/28 00:31:27;;;;;;;7.53;4.57;;;12.30;99.90;;;;;;5133892;27;20051;-71
2023/08/28 00:33:52;;;;;;;6.97;4.50;;;12.30;99.90;;;;;;5154494;27;20047;-71
2023/08/28 00:36:19;;;;;;;5.32;4.20;;;12.40;99.90;;;;;;5138763;27;20043;-71
2023/08/28 00:38:44;;;;;;;5.18;3.92;;;12.30;99.90;;;;;;5134941;27;20616;-71
2023/08/28 00:41:11;;;;;;;6.68;3.97;;;12.30;99.90;;;;;;5134087;27;20043;-71
2023/08/28 00:43:37;;;;;;;5.57;3.85;;;12.30;99.90;;;;;;5140767;27;20518;-71
2023/08/28 00:46:04;;;;;;;6.03;3.95;;;12.30;99.90;;;;;;5126496;27;20130;-71
2023/08/28 00:48:30;;;;;;;5.10;4.00;;;12.30;99.90;;;;;;5133861;27;20043;-71
2023/08/28 00:50:56;;;;;;;4.60;3.85;;;12.20;99.90;;;;;;5144193;27;20043;-71
2023/08/28 00:53:23;;;;;;;5.07;3.92;;;12.10;99.90;;;;;;5133611;28;20495;-71
2023/08/28 00:55:49;;;;;;;5.95;4.03;;;12.10;99.90;;;;;;5115028;27;20460;-72
2023/08/28 00:58:16;;;;;;;6.20;3.85;;;12.00;99.90;;;;;;5133320;27;20114;-72
2023/08/28 01:00:42;;;;;;;5.45;3.90;;;11.90;99.90;;;;;;5138208;27;20077;-72
2023/08/28 01:03:09;;;;;;;4.97;3.75;;;11.80;99.90;;;;;;5136802;27;20071;-72
2023/08/28 01:06:04;;;;;;;5.18;3.85;;;11.80;99.90;;;;;;5149641;27;20376;-71
2023/08/28 01:08:42;;;;;;;6.30;4.43;;;11.80;99.90;;;;;;5151714;27;20043;-71
2023/08/28 01:11:15;;;;;;;6.15;4.25;;;11.70;99.90;;;;;;5130785;28;20383;-72
2023/08/28 01:13:50;;;;;;;6.03;4.47;;;11.70;99.90;;;;;;5134083;27;20039;-72
2023/08/28 01:16:17;;;;;;;6.22;4.47;;;11.70;99.90;;;;;;5134496;27;20058;-72
2023/08/28 01:18:43;;;;;;;6.50;4.55;;;11.70;99.90;;;;;;5147210;27;20096;-71
2023/08/28 01:21:10;;;;;;;5.45;4.07;;;11.60;99.90;;;;;;5136297;27;20055;-71
2023/08/28 01:23:55;;;;;;;6.22;4.18;;;11.60;99.90;;;;;;5140413;27;20078;-71
2023/08/28 01:26:22;;;;;;;5.57;3.58;;;11.60;99.90;;;;;;5142541;27;20082;-71
2023/08/28 01:28:48;;;;;;;5.15;3.72;;;11.50;99.90;;;;;;5154240;27;20035;-71
2023/08/28 01:31:13;;;;;;;5.15;4.22;;;11.50;99.90;;;;;;5154237;27;20111;-71
2023/08/28 01:33:40;;;;;;;5.88;4.63;;;11.50;99.90;;;;;;5148088;27;20449;-71
2023/08/28 01:36:20;;;;;;;6.82;5.05;;;11.50;99.90;;;;;;5132702;27;20400;-71
2023/08/28 01:38:53;;;;;;;6.47;5.40;;;11.60;99.90;;;;;;5137980;27;20507;-72
2023/08/28 01:41:23;;;;;;;8.63;5.50;;;11.60;99.90;;;;;;5134724;27;20039;-71
2023/08/28 01:43:52;;;;;;;7.20;5.38;;;11.70;99.90;;;;;;5119426;27;20051;-71
2023/08/28 01:46:19;;;;;;;6.93;5.20;;;11.70;99.90;;;;;;5153061;27;20042;-71
2023/08/28 01:48:53;;;;;;;6.90;5.47;;;11.70;99.90;;;;;;5140503;27;20359;-71
2023/08/28 01:51:20;;;;;;;7.43;5.40;;;11.80;99.90;;;;;;5137432;27;20047;-71
2023/08/28 01:53:47;;;;;;;8.95;5.47;;;11.80;99.90;;;;;;5152180;27;20049;-71
2023/08/28 01:56:15;;;;;;;7.03;5.88;;;11.70;99.90;;;;;;5139804;27;20039;-72
2023/08/28 01:58:43;;;;;;;9.60;6.25;;;11.80;99.90;;;;;;5157925;27;20047;-72
2023/08/28 02:01:09;;;;;;;8.40;6.45;;;11.70;99.90;;;;;;5153693;27;20130;-72
2023/08/28 02:03:36;;;;;;;6.93;5.43;;;11.70;99.90;;;;;;5137154;27;20074;-71
2023/08/28 02:06:02;;;;;;;8.35;5.50;;;11.70;99.90;;;;;;5147817;27;20399;-71
2023/08/28 02:08:28;;;;;;;8.13;6.18;;;11.60;99.90;;;;;;5107432;27;20043;-71
2023/08/28 02:10:53;;;;;;;7.28;5.60;;;11.60;99.90;;;;;;5153161;27;20046;-71
2023/08/28 02:13:19;;;;;;;9.45;6.60;;;11.50;99.90;;;;;;5153978;27;20070;-71
2023/08/28 02:15:44;;;;;;;7.57;6.10;;;11.50;99.90;;;;;;5157932;27;20046;-71
2023/08/28 02:18:10;;;;;;;8.30;6.30;;;11.50;99.90;;;;;;5156454;27;20068;-71
2023/08/28 02:20:36;;;;;;;10.90;7.32;;;11.40;99.90;;;;;;5123003;27;20111;-71
2023/08/28 02:23:01;;;;;;;9.68;6.90;;;11.40;99.90;;;;;;5118257;27;20050;-71
2023/08/28 02:25:27;;;;;;;10.43;6.63;;;11.40;99.90;;;;;;5136456;27;20043;-71
2023/08/28 02:27:53;;;;;;;9.27;7.60;;;11.40;99.90;;;;;;5136665;27;20039;-71
2023/08/28 02:30:18;;;;;;;10.05;7.60;;;11.40;99.90;;;;;;5126878;27;20087;-71
2023/08/28 02:32:44;;;;;;;12.27;7.93;;;11.40;99.90;;;;;;5144120;27;20182;-71
2023/08/28 02:35:13;;;;;;;10.63;7.68;;;11.50;99.90;;;;;;5136120;27;20083;-71
2023/08/28 02:37:39;;;;;;;12.27;7.70;;;11.50;99.90;;;;;;5136561;27;20040;-71
2023/08/28 02:40:06;;;;;;;9.77;7.10;;;11.50;99.90;;;;;;5136029;27;20089;-70
2023/08/28 02:42:32;;;;;;;8.70;6.53;;;11.50;99.90;;;;;;5136267;27;20470;-72
2023/08/28 02:44:58;;;;;;;11.25;6.70;;;11.40;99.90;;;;;;5136343;27;20082;-71
2023/08/28 02:47:23;;;;;;;10.48;7.00;;;11.40;99.90;;;;;;5143404;27;20046;-71
2023/08/28 02:49:49;;;;;;;9.68;7.07;;;11.40;99.90;;;;;;5153724;27;20081;-70
2023/08/28 02:52:15;;;;;;;10.50;6.88;;;11.40;99.90;;;;;;5136006;27;20057;-71
2023/08/28 02:54:40;;;;;;;10.10;6.72;;;11.30;99.90;;;;;;5135583;27;20137;-70
2023/08/28 02:57:06;;;;;;;9.10;6.22;;;11.30;99.90;;;;;;5154672;27;20038;-70
2023/08/28 02:59:32;;;;;;;9.63;6.63;;;11.30;99.90;;;;;;5149072;27;20050;-70
2023/08/28 03:01:58;;;;;;;14.00;8.45;;;11.20;99.90;;;;;;5136163;27;20095;-71
2023/08/28 03:04:24;;;;;;;9.68;6.95;;;11.20;99.90;;;;;;5136219;27;20043;-71
2023/08/28 03:06:49;;;;;;;10.15;6.68;;;11.20;99.90;;;;;;5142740;27;20038;-70
2023/08/28 03:09:15;;;;;;;10.65;7.22;;;11.20;99.90;;;;;;5135679;27;20051;-70
2023/08/28 03:11:41;;;;;;;10.27;7.15;;;11.10;99.90;;;;;;5135767;27;20051;-70
2023/08/28 03:14:07;;;;;;;11.55;6.95;;;11.10;99.90;;;;;;5135832;27;20043;-70
2023/08/28 03:16:33;;;;;;;10.45;7.05;;;11.10;99.90;;;;;;5155032;27;20474;-71
2023/08/28 03:18:59;;;;;;;10.98;7.13;;;11.10;99.90;;;;;;5135929;27;20035;-71
2023/08/28 03:21:25;;;;;;;10.30;7.32;;;11.00;99.90;;;;;;5135412;27;20035;-71
2023/08/28 03:23:51;;;;;;;10.00;6.88;;;11.00;99.90;;;;;;5121030;27;20065;-71
2023/08/28 03:26:17;;;;;;;10.13;7.13;;;11.00;99.90;;;;;;5130006;27;20043;-71
2023/08/28 03:28:43;;;;;;;10.38;7.07;;;10.90;99.90;;;;;;5144450;27;20039;-70
2023/08/28 03:31:09;;;;;;;9.48;6.80;;;10.90;99.90;;;;;;5142761;27;20065;-70
2023/08/28 03:33:35;;;;;;;9.20;7.00;;;10.80;99.90;;;;;;5138733;27;20055;-71
2023/08/28 03:36:02;;;;;;;9.32;6.78;;;10.80;99.90;;;;;;5152240;27;20078;-71
2023/08/28 03:38:28;;;;;;;8.23;6.40;;;10.80;99.90;;;;;;5137482;27;20069;-71
2023/08/28 03:40:54;;;;;;;9.52;7.05;;;10.80;99.90;;;;;;5137836;27;20075;-71
2023/08/28 03:43:20;;;;;;;10.25;7.05;;;10.70;99.90;;;;;;5135114;27;20047;-70
2023/08/28 03:45:45;;;;;;;8.90;6.22;;;10.70;99.90;;;;;;5116991;27;20043;-71
2023/08/28 03:48:11;;;;;;;9.02;6.80;;;10.60;99.90;;;;;;5134885;27;20035;-70
2023/08/28 03:50:37;;;;;;;8.85;6.68;;;10.60;99.90;;;;;;5116892;27;20046;-69
2023/08/28 03:53:03;;;;;;;11.27;7.82;;;10.60;99.90;;;;;;5146253;27;20038;-70
2023/08/28 03:55:29;;;;;;;10.80;7.65;;;10.60;99.90;;;;;;5131261;27;20085;-70
2023/08/28 03:57:59;;;;;;;9.27;6.28;;;10.60;99.90;;;;;;5155844;27;20047;-71
2023/08/28 04:00:25;;;;;;;9.95;6.63;;;10.60;99.90;;;;;;5136885;27;20457;-70
2023/08/28 04:02:51;;;;;;;8.50;6.10;;;10.60;99.90;;;;;;5134743;27;20403;-71
2023/08/28 04:05:17;;;;;;;7.68;5.70;;;10.60;99.90;;;;;;5133046;27;20051;-70
2023/08/28 04:07:43;;;;;;;11.07;6.45;;;10.50;99.90;;;;;;5134501;27;20114;-70
2023/08/28 04:10:10;;;;;;;10.60;6.60;;;10.40;99.90;;;;;;5148532;27;20478;-70
2023/08/28 04:12:36;;;;;;;9.90;6.30;;;10.40;99.90;;;;;;5134223;27;20510;-71
2023/08/28 04:15:03;;;;;;;8.88;6.03;;;10.40;99.90;;;;;;5134603;27;20406;-70
2023/08/28 04:17:29;;;;;;;9.75;6.88;;;10.40;99.90;;;;;;5102654;27;20054;-71
2023/08/28 04:19:55;;;;;;;8.55;6.53;;;10.50;99.90;;;;;;5143663;27;20498;-71
2023/08/28 04:22:22;;;;;;;9.93;6.72;;;10.50;99.90;;;;;;5121047;27;20047;-70
2023/08/28 04:24:50;;;;;;;12.43;7.10;;;10.50;99.90;;;;;;5136416;27;20049;-70
2023/08/28 04:27:16;;;;;;;10.85;7.10;;;10.40;99.90;;;;;;5114213;27;20097;-70
2023/08/28 04:29:42;;;;;;;13.63;7.55;;;10.40;99.90;;;;;;5116418;27;20391;-70
2023/08/28 04:32:09;;;;;;;12.75;7.00;;;10.40;99.90;;;;;;5134186;27;20518;-70
2023/08/28 04:34:35;;;;;;;8.63;6.57;;;10.40;99.90;;;;;;5133498;27;20055;-70
2023/08/28 04:37:00;;;;;;;10.25;7.32;;;10.30;99.90;;;;;;5139789;27;20130;-70
2023/08/28 04:39:26;;;;;;;9.73;6.70;;;10.30;99.90;;;;;;5116992;27;20495;-70
2023/08/28 04:41:52;;;;;;;10.68;7.50;;;10.40;99.90;;;;;;5133902;27;20049;-70
2023/08/28 04:44:18;;;;;;;10.90;7.85;;;10.30;99.90;;;;;;5139814;27;20078;-70
2023/08/28 04:46:47;;;;;;;11.82;7.70;;;10.40;99.90;;;;;;5153323;27;20439;-71
2023/08/28 04:49:13;;;;;;;11.43;7.32;;;10.40;99.90;;;;;;5118926;27;20045;-70
2023/08/28 04:51:38;;;;;;;10.95;7.25;;;10.40;99.90;;;;;;5154916;27;20042;-70
2023/08/28 04:54:04;;;;;;;11.23;7.72;;;10.40;99.90;;;;;;5151020;27;20039;-70
2023/08/28 04:56:30;;;;;;;11.38;8.18;;;10.50;99.90;;;;;;5133845;27;20396;-71
2023/08/28 04:58:56;;;;;;;11.25;7.82;;;10.50;99.90;;;;;;5137255;27;20042;-70
2023/08/28 05:01:21;;;;;;;11.05;7.97;;;10.60;99.90;;;;;;5143321;27;20054;-70
2023/08/28 05:03:47;;;;;;;11.30;7.50;;;10.60;99.90;;;;;;5133870;27;20490;-70
2023/08/28 05:06:12;;;;;;;13.07;7.85;;;10.60;99.90;;;;;;5133231;27;20100;-69
2023/08/28 05:08:38;;;;;;;11.38;7.03;;;10.70;99.90;;;;;;5133798;27;20039;-69
2023/08/28 05:11:04;;;;;;;11.52;7.88;;;10.70;99.90;;;;;;5133894;27;20498;-71
2023/08/28 05:13:30;;;;;;;11.20;7.38;;;10.70;99.90;;;;;;5134087;27;20449;-70
2023/08/28 05:15:56;;;;;;;11.70;7.63;;;10.80;99.90;;;;;;5134256;27;20077;-70
2023/08/28 05:18:22;;;;;;;11.10;7.55;;;10.90;99.90;;;;;;5156226;27;20038;-69
2023/08/28 05:20:48;;;;;;;13.18;9.05;;;10.90;99.90;;;;;;5119365;27;20047;-69
2023/08/28 05:23:13;;;;;;;13.02;9.00;;;11.00;99.90;;;;;;5137614;27;20075;-70
2023/08/28 05:25:39;;;;;;;15.45;9.02;;;11.10;99.90;;;;;;5137539;27;20069;-69
2023/08/28 05:28:05;;;;;;;13.35;8.68;;;11.10;99.90;;;;;;5119585;27;20050;-69
2023/08/28 05:30:31;;;;;;;13.00;8.18;;;11.20;99.90;;;;;;5137068;27;20407;-69
2023/08/28 05:32:57;;;;;;;13.48;9.20;;;11.20;99.90;;;;;;5137387;27;20047;-70
2023/08/28 05:35:23;;;;;;;12.52;8.80;;;11.20;99.90;;;;;;5142373;27;20118;-70
2023/08/28 05:37:50;;;;;;;12.55;8.43;;;11.30;99.90;;;;;;5142966;27;20136;-71
2023/08/28 05:40:16;;;;;;;13.18;8.93;;;11.30;99.90;;;;;;5141763;27;20126;-71
2023/08/28 05:42:43;;;;;;;12.32;9.02;;;11.40;99.90;;;;;;5137308;27;20039;-71
2023/08/28 05:45:09;;;;;;;11.80;8.52;;;11.40;99.90;;;;;;5137065;27;20510;-71
2023/08/28 05:47:36;;;;;;;11.40;8.52;;;11.50;99.90;;;;;;5148017;27;20090;-70
2023/08/28 05:50:03;;;;;;;12.82;9.82;;;11.50;99.90;;;;;;5145026;27;20390;-70
2023/08/28 05:52:29;;;;;;;14.23;9.60;;;11.60;99.90;;;;;;5137585;27;20045;-70
2023/08/28 05:54:55;;;;;;;13.05;8.57;;;11.70;99.90;;;;;;5137349;27;20526;-71
2023/08/28 05:57:21;;;;;;;14.80;9.52;;;11.70;99.90;;;;;;5144451;27;20107;-70
2023/08/28 05:59:46;;;;;;;11.73;9.05;;;11.70;99.90;;;;;;5146450;27;20054;-71
2023/08/28 06:02:13;;;;;;;12.40;9.20;;;11.80;99.90;;;;;;5152317;27;20427;-71
2023/08/28 06:04:38;;;;;;;14.40;9.10;;;11.90;99.90;;;;;;5140331;27;20043;-70
2023/08/28 06:07:04;;;;;;;11.88;7.70;;;12.00;99.90;;;;;;5136900;27;20187;-71
2023/08/28 06:09:31;;;;;;;12.10;7.50;;;12.10;99.90;;;;;;5142867;27;20074;-71
2023/08/28 06:11:57;;;;;;;10.93;8.48;;;12.10;99.90;;;;;;5157585;27;20094;-72
2023/08/28 06:14:22;;;;;;;11.00;7.22;;;12.20;99.90;;;;;;5154103;27;20039;-67
2023/08/28 06:16:49;;;;;;;11.30;7.32;;;12.30;99.90;;;;;;5143573;27;20035;-66
2023/08/28 06:19:15;;;;;;;10.05;7.35;;;12.30;99.90;;;;;;5121641;27;20146;-67
2023/08/28 06:21:44;;;;;;;12.23;7.30;;;12.40;99.90;;;;;;5147533;27;20121;-67
2023/08/28 06:24:13;;;;;;;11.20;7.55;;;12.40;99.90;;;;;;5136964;27;20062;-67
2023/08/28 06:26:41;;;;;;;10.80;7.60;;;12.50;99.90;;;;;;5118665;27;20158;-67
2023/08/28 06:29:07;;;;;;;9.90;7.05;;;12.60;99.90;;;;;;5139809;27;20043;-67
2023/08/28 06:31:32;;;;;;;11.77;7.38;;;12.70;99.90;;;;;;5145071;27;20099;-67
2023/08/28 06:33:58;;;;;;;10.15;6.78;;;12.80;99.90;;;;;;5136408;27;20403;-67
2023/08/28 06:36:24;;;;;;;10.85;7.07;;;12.90;99.90;;;;;;5135566;27;20047;-67
2023/08/28 06:38:52;;;;;;;11.73;7.30;;;13.00;99.90;;;;;;5138125;27;20085;-67
2023/08/28 06:41:18;;;;;;;10.00;6.90;;;13.10;99.90;;;;;;5136399;27;20047;-66
2023/08/28 06:43:46;;;;;;;9.00;6.38;;;13.10;99.90;;;;;;5136244;27;20180;-66
2023/08/28 06:46:11;;;;;;;8.55;6.03;;;13.20;99.90;;;;;;5141552;27;20047;-66
2023/08/28 06:48:37;;;;;;;8.32;6.55;;;13.30;99.90;;;;;;5135991;27;20066;-66
2023/08/28 06:51:03;;;;;;;8.38;6.20;;;13.40;99.90;;;;;;5129395;27;20043;-67
2023/08/28 06:53:30;;;;;;;9.38;6.03;;;13.40;99.90;;;;;;5133606;27;20383;-67
2023/08/28 06:55:56;;;;;;;10.02;6.22;;;13.60;99.90;;;;;;5136109;27;20126;-67
2023/08/28 06:58:22;;;;;;;8.98;5.97;;;13.70;99.90;;;;;;5135654;27;20480;-66
2023/08/28 07:00:48;;;;;;;9.18;5.60;;;13.80;99.90;;;;;;5131785;27;20041;-67
2023/08/28 07:03:13;;;;;;;8.35;5.93;;;13.90;99.90;;;;;;5136032;27;20042;-66
2023/08/28 07:05:40;;;;;;;7.75;5.35;;;14.00;99.90;;;;;;5137415;27;20046;-66
2023/08/28 07:08:05;;;;;;;8.20;5.43;;;14.10;99.90;;;;;;5145750;27;20039;-66
2023/08/28 07:10:32;;;;;;;7.03;5.22;;;14.20;99.90;;;;;;5144814;27;20043;-66
2023/08/28 07:12:57;;;;;;;7.32;4.80;;;14.20;99.90;;;;;;5145871;27;20483;-67
2023/08/28 07:15:29;;;;;;;7.57;5.22;;;14.30;99.90;;;;;;5142661;27;20254;-67
2023/08/28 07:17:55;;;;;;;6.65;4.50;;;14.40;99.90;;;;;;5144605;27;20034;-67
2023/08/28 07:20:22;;;;;;;8.65;4.82;;;14.60;99.90;;;;;;5144980;27;20062;-67
2023/08/28 07:22:48;;;;;;;7.97;4.35;;;14.70;99.90;;;;;;5155323;27;20114;-67
2023/08/28 07:25:15;;;;;;;6.25;4.38;;;14.80;99.90;;;;;;5143780;27;20130;-65
2023/08/28 07:27:41;;;;;;;6.55;4.65;;;14.90;99.90;;;;;;5134585;27;20050;-65
2023/08/28 07:30:07;;;;;;;5.00;3.95;;;15.00;99.90;;;;;;5141814;27;20042;-66
2023/08/28 07:32:34;;;;;;;5.45;4.15;;;15.10;99.90;;;;;;5136574;27;20069;-66
2023/08/28 07:35:00;;;;;;;6.70;4.72;;;15.30;99.90;;;;;;5154701;27;20575;-66
2023/08/28 07:37:29;;;;;;;5.20;3.67;;;15.30;99.90;;;;;;5154911;27;20038;-66
2023/08/28 07:39:55;;;;;;;5.25;3.72;;;15.40;99.90;;;;;;5155645;27;20050;-66
2023/08/28 07:42:21;;;;;;;6.03;3.72;;;15.50;99.90;;;;;;5155180;27;20098;-67
2023/08/28 07:44:47;;;;;;;6.25;3.90;;;15.60;99.90;;;;;;5129568;27;20478;-66
2023/08/28 07:47:13;;;;;;;5.47;4.25;;;15.70;99.90;;;;;;5134334;27;20057;-66
2023/08/28 07:49:41;;;;;;;5.32;3.70;;;15.80;99.90;;;;;;5155058;27;20035;-67
2023/08/28 07:52:07;;;;;;;5.03;3.97;;;15.80;99.90;;;;;;5149245;27;20043;-67
2023/08/28 07:54:33;;;;;;;4.85;3.72;;;15.90;99.90;;;;;;5151947;27;20039;-67
2023/08/28 07:56:58;;;;;;;5.82;3.63;;;16.00;99.90;;;;;;5152885;27;20046;-66
2023/08/28 07:59:24;;;;;;;6.03;3.88;;;16.00;99.90;;;;;;5153253;27;20443;-66
2023/08/28 08:01:50;;;;;;;5.45;3.70;;;16.10;99.90;;;;;;5146444;27;20107;-67
2023/08/28 08:04:15;;;;;;;3.78;2.90;;;16.20;99.90;;;;;;5144410;27;20042;-67
2023/08/28 08:06:42;;;;;;;4.55;3.03;;;16.30;99.90;;;;;;5143765;27;20050;-67
2023/08/28 08:09:09;;;;;;;3.85;2.90;;;16.40;99.90;;;;;;5143151;27;20035;-67
2023/08/28 08:11:35;;;;;;;5.03;3.22;;;16.50;99.90;;;;;;5149366;27;20396;-66
2023/08/28 08:14:01;;;;;;;4.45;2.83;;;16.60;99.90;;;;;;5154877;27;20106;-66
2023/08/28 08:16:26;;;;;;;4.00;2.72;;;16.70;99.90;;;;;;5152101;27;20050;-66
2023/08/28 08:18:52;;;;;;;3.20;2.55;;;16.70;99.90;;;;;;5133145;27;20090;-66
2023/08/28 08:21:18;;;;;;;4.55;2.58;;;16.80;99.90;;;;;;5133947;27;20047;-66
2023/08/28 08:23:44;;;;;;;5.60;2.42;;;16.80;99.90;;;;;;5098867;27;20043;-67
2023/08/28 08:26:10;;;;;;;2.90;2.15;;;17.00;99.90;;;;;;5134087;27;20047;-66
2023/08/28 08:28:35;;;;;;;3.30;2.10;;;17.00;99.90;;;;;;5115295;27;20167;-67
2023/08/28 08:31:04;;;;;;;5.47;2.45;;;17.20;99.90;;;;;;5133423;27;20050;-68
2023/08/28 08:33:30;;;;;;;3.08;1.90;;;17.20;99.90;;;;;;5128158;27;20055;-67
2023/08/28 08:35:55;;;;;;;2.60;1.90;;;17.40;99.90;;;;;;5125605;27;20738;-67
2023/08/28 08:38:21;;;;;;;3.03;1.60;;;17.40;99.90;;;;;;5153445;27;20043;-67
2023/08/28 08:40:51;;;;;;;3.00;1.45;;;17.50;99.90;;;;;;5141379;27;20126;-66
2023/08/28 08:43:17;;;;;;;2.17;1.20;;;17.60;99.90;;;;;;5148684;27;20475;-66
2023/08/28 08:45:45;;;;;;;2.33;1.08;;;17.80;99.90;;;;;;5146475;27;20054;-68
2023/08/28 08:48:16;;;;;;;2.95;1.27;;;17.90;99.90;;;;;;5143695;27;20078;-67
2023/08/28 08:50:46;;;;;;;2.40;1.30;;;18.10;99.90;;;;;;5134742;27;20499;-68
2023/08/28 08:53:50;;;;;;;2.65;1.30;;;18.20;99.90;;;;;;5152912;27;20050;-67
2023/08/28 08:56:21;;;;;;;2.55;1.05;;;18.10;99.90;;;;;;5089408;28;20051;-66
2023/08/28 08:58:49;;;;;;;4.00;1.60;;;17.90;99.90;;;;;;5116648;27;20053;-67
2023/08/28 09:01:16;;;;;;;3.47;1.50;;;17.70;99.90;;;;;;5153815;27;20607;-67
2023/08/28 09:03:43;;;;;;;3.65;1.20;;;17.80;99.90;;;;;;5153649;27;20045;-68
2023/08/28 09:06:10;;;;;;;2.80;1.40;;;18.10;99.90;;;;;;5151414;27;20519;-67
2023/08/28 09:08:40;;;;;;;3.20;1.38;;;18.30;99.90;;;;;;5141926;27;20468;-67
2023/08/28 09:11:06;;;;;;;3.20;1.10;;;18.60;99.90;;;;;;5122611;28;20050;-66
2023/08/28 09:13:33;;;;;;;2.88;1.20;;;18.80;99.90;;;;;;5133060;28;20437;-67
2023/08/28 09:15:58;;;;;;;2.55;1.40;;;19.00;99.90;;;;;;5133700;28;20047;-67
2023/08/28 09:18:25;;;;;;;1.60;0.70;;;19.10;99.90;;;;;;5131223;28;20051;-66
2023/08/28 09:21:11;;;;;;;2.95;1.20;;;19.10;99.90;;;;;;5133329;28;20047;-67
2023/08/28 09:23:53;;;;;;;3.35;1.05;;;18.80;99.90;;;;;;5133751;28;20062;-66
2023/08/28 09:26:20;;;;;;;2.17;1.17;;;18.60;99.90;;;;;;5133884;28;20055;-66
2023/08/28 09:29:03;;;;;;;1.52;0.88;;;18.60;99.90;;;;;;5133916;28;20039;-66
2023/08/28 09:31:39;;;;;;;2.70;0.80;;;18.80;99.90;;;;;;5144119;27;20085;-67
2023/08/28 09:34:05;;;;;;;2.42;1.10;;;19.00;99.90;;;;;;5154397;27;20085;-67
2023/08/28 09:36:40;;;;;;;1.80;1.00;;;18.80;99.90;;;;;;5153561;27;20047;-67
2023/08/28 09:39:06;;;;;;;2.15;0.73;;;18.70;99.90;;;;;;5140943;27;20433;-66
2023/08/28 09:41:49;;;;;;;3.83;1.05;;;18.50;99.90;;;;;;5154169;27;20047;-67
2023/08/28 09:44:16;;;;;;;2.28;0.70;;;18.30;99.90;;;;;;5153815;27;20078;-67
2023/08/28 09:46:43;;;;;;;1.95;0.70;;;18.40;99.90;;;;;;5153887;27;20126;-67
2023/08/28 09:49:11;;;;;;;1.25;0.50;;;18.70;99.90;;;;;;5153838;27;20047;-66
2023/08/28 09:51:42;;;;;;;1.95;0.70;;;18.90;99.90;;;;;;5153942;27;20051;-66
2023/08/28 09:54:09;;;;;;;1.60;0.70;;;19.20;99.90;;;;;;5154411;27;20053;-67
2023/08/28 09:56:36;;;;;;;2.20;0.63;;;19.30;99.90;;;;;;5154569;27;20133;-67
2023/08/28 09:59:03;;;;;;;2.03;0.70;;;19.50;99.90;;;;;;5153717;27;20050;-67
2023/08/28 10:01:34;;;;;;;2.95;0.80;;;19.60;99.90;;;;;;5135739;27;20054;-66
2023/08/28 10:04:04;;;;;;;1.48;0.60;;;19.80;99.90;;;;;;5137900;27;20050;-67
2023/08/28 10:06:33;;;;;;;2.92;0.75;;;19.90;99.90;;;;;;5157632;27;20061;-66
2023/08/28 10:09:00;;;;;;;1.52;0.70;;;20.00;99.90;;;;;;5157402;27;20483;-67
2023/08/28 10:11:54;;;;;;;1.80;0.77;;;19.90;99.90;;;;;;5139503;27;20059;-66
2023/08/28 10:14:22;;;;;;;1.60;0.73;;;19.60;99.90;;;;;;5135367;27;20051;-67
2023/08/28 10:16:53;;;;;;;1.30;0.65;;;19.30;99.90;;;;;;5152361;27;20047;-67
2023/08/28 10:19:25;;;;;;;2.67;0.90;;;19.00;99.90;;;;;;5136907;27;20045;-68
2023/08/28 10:21:51;;;;;;;1.85;0.65;;;18.80;99.90;;;;;;5136712;27;20047;-67
2023/08/28 10:24:18;;;;;;;2.30;0.90;;;18.70;99.90;;;;;;5118141;27;20047;-67
2023/08/28 10:26:46;;;;;;;1.52;0.80;;;18.60;99.90;;;;;;5136638;27;20054;-66
2023/08/28 10:29:17;;;;;;;2.10;0.90;;;18.60;99.90;;;;;;5136122;27;20043;-66
2023/08/28 10:31:43;;;;;;;1.25;0.68;;;19.00;99.90;;;;;;5101415;27;20104;-67
2023/08/28 10:34:10;;;;;;;1.98;0.60;;;19.30;99.90;;;;;;5134927;27;20458;-67
2023/08/28 10:36:36;;;;;;;1.70;0.70;;;19.70;99.90;;;;;;5134721;27;20143;-67
2023/08/28 10:39:03;;;;;;;2.15;0.50;;;20.00;99.90;;;;;;5140928;27;20050;-67
2023/08/28 10:41:31;;;;;;;2.97;0.70;;;20.20;99.90;;;;;;5156610;27;20039;-67
2023/08/28 10:43:58;;;;;;;1.48;0.63;;;20.40;99.90;;;;;;5155925;27;20134;-68
2023/08/28 10:46:27;;;;;;;1.13;0.50;;;20.60;99.90;;;;;;5156952;27;20046;-67
2023/08/28 10:49:03;;;;;;;1.58;0.70;;;20.90;99.90;;;;;;5156806;27;20034;-68
2023/08/28 10:51:31;;;;;;;;;;;20.90;99.90;;;;;;5157380;27;20129;-66
2023/08/28 10:54:04;;;;;;;1.45;0.63;;;21.00;99.90;;;;;;5156640;27;19919;-66
2023/08/28 10:56:34;;;;;;;2.10;0.52;;;21.30;99.90;;;;;;5156567;27;20052;-67
2023/08/28 10:59:24;;;;;;;1.52;0.50;;;21.60;99.90;;;;;;5156366;27;20038;-66
2023/08/28 11:01:55;;;;;;;1.00;0.52;;;21.40;99.90;;;;;;5156075;27;20100;-67
2023/08/28 11:04:22;;;;;;;2.60;0.70;;;21.30;99.90;;;;;;5155933;27;20114;-67
2023/08/28 11:06:48;;;;;;;2.38;0.70;;;21.40;99.90;;;;;;5137895;27;20039;-74
2023/08/28 11:09:29;;;;;;;2.15;0.52;;;21.50;99.90;;;;;;5137656;27;20043;-68
2023/08/28 11:11:57;;;;;;;1.92;0.80;;;21.60;99.90;;;;;;5156257;27;20050;-67
2023/08/28 11:14:30;;;;;;;1.58;0.60;;;21.50;99.90;;;;;;5155658;27;20053;-67
2023/08/28 11:17:08;;;;;;;2.10;0.60;;;21.20;99.90;;;;;;5149546;27;20416;-68
2023/08/28 11:19:53;;;;;;;1.08;0.45;;;21.00;99.90;;;;;;5134941;27;20046;-68
2023/08/28 11:22:41;;;;;;;1.17;0.60;;;20.70;99.90;;;;;;5142324;27;20122;-68
2023/08/28 11:25:09;;;;;;;1.50;0.60;;;20.50;99.90;;;;;;5143919;27;20043;-69
2023/08/28 11:27:46;;;;;;;2.17;0.75;;;20.30;99.90;;;;;;5134728;27;20441;-68
2023/08/28 11:30:13;;;;;;;2.65;0.80;;;20.10;99.90;;;;;;5135523;27;20092;-67
2023/08/28 11:32:42;;;;;;;0.93;0.50;;;20.00;99.90;;;;;;5155379;27;20038;-66
2023/08/28 11:35:09;;;;;;;0.88;0.43;;;19.90;99.90;;;;;;5136972;27;20055;-67
2023/08/28 11:37:44;;;;;;;1.52;0.60;;;19.90;99.90;;;;;;5152043;27;20124;-67
2023/08/28 11:40:10;;;;;;;1.77;0.70;;;20.10;99.90;;;;;;5145980;27;20121;-67
2023/08/28 11:42:38;;;;;;;2.30;0.70;;;20.10;99.90;;;;;;5155417;27;20099;-67
2023/08/28 11:45:05;;;;;;;2.13;0.65;;;20.00;99.90;;;;;;5155662;27;20050;-66
2023/08/28 11:47:32;;;;;;;0.98;0.60;;;20.00;99.90;;;;;;5138257;27;20053;-66
2023/08/28 11:49:59;;;;;;;1.52;0.50;;;20.10;99.90;;;;;;5134313;27;20042;-67
2023/08/28 11:52:25;;;;;;;1.17;0.60;;;20.30;99.90;;;;;;5134954;27;20103;-67
2023/08/28 11:54:52;;;;;;;2.88;0.60;;;20.60;99.90;;;;;;5134605;27;20495;-67
2023/08/28 11:57:19;;;;;;;1.95;0.60;;;20.80;99.90;;;;;;5134537;27;20047;-67
2023/08/28 11:59:47;;;;;;;1.70;0.50;;;20.90;99.90;;;;;;5134560;27;20075;-68
2023/08/28 12:02:14;;;;;;;1.67;0.70;;;20.80;99.90;;;;;;5134199;27;20129;-67
2023/08/28 12:04:43;;;;;;;1.88;0.68;;;20.60;99.90;;;;;;5134334;27;20051;-66
2023/08/28 12:07:21;;;;;;;2.10;0.60;;;20.40;99.90;;;;;;5134215;27;20061;-67
2023/08/28 12:09:48;;;;;;;1.17;0.63;;;20.30;99.90;;;;;;5134189;27;20039;-67
2023/08/28 12:12:15;;;;;;;1.88;0.70;;;20.20;99.90;;;;;;5134502;27;20399;-67
2023/08/28 12:14:46;;;;;;;1.50;0.60;;;20.10;99.90;;;;;;5099293;28;20100;-66
2023/08/28 12:17:22;;;;;;;2.28;0.70;;;19.90;99.90;;;;;;5133726;27;20083;-67
2023/08/28 12:19:50;;;;;;;1.52;0.68;;;19.90;99.90;;;;;;5133344;27;20099;-68
2023/08/28 12:22:17;;;;;;;1.65;0.80;;;19.80;99.90;;;;;;5133153;27;20058;-68
2023/08/28 12:24:45;;;;;;;1.52;0.60;;;19.80;99.90;;;;;;5133959;27;20047;-67
2023/08/28 12:27:12;;;;;;;1.33;0.50;;;19.70;99.90;;;;;;5132599;27;20054;-69
2023/08/28 12:29:41;;;;;;;1.85;0.60;;;19.70;99.90;;;;;;5134129;27;20078;-67
2023/08/28 12:32:09;;;;;;;1.30;0.50;;;19.70;99.90;;;;;;5134018;27;20391;-68
2023/08/28 12:34:37;;;;;;;1.65;0.70;;;19.80;99.90;;;;;;5133772;27;20058;-67
2023/08/28 12:37:07;;;;;;;1.50;0.57;;;20.00;99.90;;;;;;5134053;27;20116;-67
2023/08/28 12:39:34;;;;;;;1.65;0.70;;;20.20;99.90;;;;;;5154158;27;20399;-67
2023/08/28 12:42:00;;;;;;;1.30;0.60;;;20.60;99.90;;;;;;5154570;27;20067;-67
2023/08/28 12:44:27;;;;;;;1.08;0.50;;;21.00;99.90;;;;;;5155003;27;20448;-67
2023/08/28 12:46:54;;;;;;;0.88;0.52;;;21.30;99.90;;;;;;5154305;27;20050;-70
2023/08/28 12:49:20;;;;;;;1.10;0.47;;;21.50;99.90;;;;;;5128827;27;20040;-69